sensor_id;sensor_type;location;lat;lon;timestamp;pressure;altitude;pressure_sealevel;temperature;humidity
26112;BME280;13829;48.990;8.346;2024-02-26T00:00:16;98523.03;;;9.66;57.73
26112;BME280;13829;48.990;8.346;2024-02-26T00:02:44;98516.97;;;9.62;57.82
26112;BME280;13829;48.990;8.346;2024-02-26T00:05:11;98516.34;;;9.51;58.57
26112;BME280;13829;48.990;8.346;2024-02-26T00:07:38;98527.00;;;9.45;56.49
26112;BME280;13829;48.990;8.346;2024-02-26T00:10:06;98535.69;;;9.47;58.86
26112;BME280;13829;48.990;8.346;2024-02-26T00:12:33;98521.59;;;9.51;59.26
26112;BME280;13829;48.990;8.346;2024-02-26T00:15:00;98530.19;;;9.59;60.32
26112;BME280;13829;48.990;8.346;2024-02-26T00:17:27;98533.78;;;9.55;60.38
26112;BME280;13829;48.990;8.346;2024-02-26T00:19:55;98532.25;;;9.45;61.08
26112;BME280;13829;48.990;8.346;2024-02-26T00:22:22;98528.59;;;9.52;62.47
26112;BME280;13829;48.990;8.346;2024-02-26T00:24:49;98541.06;;;9.41;62.64
26112;BME280;13829;48.990;8.346;2024-02-26T00:27:16;98550.63;;;9.43;63.77
26112;BME280;13829;48.990;8.346;2024-02-26T00:29:43;98542.94;;;9.34;64.97
26112;BME280;13829;48.990;8.346;2024-02-26T00:32:10;98542.97;;;9.33;67.09
26112;BME280;13829;48.990;8.346;2024-02-26T00:34:37;98554.41;;;9.30;67.76
26112;BME280;13829;48.990;8.346;2024-02-26T00:37:05;98554.00;;;9.49;65.18
26112;BME280;13829;48.990;8.346;2024-02-26T00:39:32;98557.00;;;9.32;65.40
26112;BME280;13829;48.990;8.346;2024-02-26T00:41:59;98552.72;;;9.27;67.79
26112;BME280;13829;48.990;8.346;2024-02-26T00:44:26;98552.72;;;9.27;67.28
26112;BME280;13829;48.990;8.346;2024-02-26T00:46:56;98552.81;;;9.21;73.57
26112;BME280;13829;48.990;8.346;2024-02-26T00:49:23;98543.28;;;9.17;73.64
26112;BME280;13829;48.990;8.346;2024-02-26T00:51:50;98557.28;;;9.16;71.39
26112;BME280;13829;48.990;8.346;2024-02-26T00:54:18;98552.09;;;9.13;69.12
26112;BME280;13829;48.990;8.346;2024-02-26T00:56:45;98548.59;;;9.14;68.94
26112;BME280;13829;48.990;8.346;2024-02-26T00:59:12;98546.69;;;9.22;70.98
26112;BME280;13829;48.990;8.346;2024-02-26T01:01:39;98542.25;;;9.24;73.17
26112;BME280;13829;48.990;8.346;2024-02-26T01:04:06;98548.03;;;9.42;75.77
26112;BME280;13829;48.990;8.346;2024-02-26T01:06:32;98552.16;;;9.55;69.41
26112;BME280;13829;48.990;8.346;2024-02-26T01:08:59;98550.84;;;9.33;67.00
26112;BME280;13829;48.990;8.346;2024-02-26T01:11:28;98558.78;;;9.29;70.27
26112;BME280;13829;48.990;8.346;2024-02-26T01:13:55;98556.69;;;9.47;74.10
26112;BME280;13829;48.990;8.346;2024-02-26T01:16:22;98552.84;;;9.63;73.26
26112;BME280;13829;48.990;8.346;2024-02-26T01:18:49;98566.22;;;9.51;72.33
26112;BME280;13829;48.990;8.346;2024-02-26T01:21:16;98552.56;;;9.35;74.07
26112;BME280;13829;48.990;8.346;2024-02-26T01:23:43;98555.69;;;9.53;72.19
26112;BME280;13829;48.990;8.346;2024-02-26T01:26:10;98553.28;;;9.42;73.82
26112;BME280;13829;48.990;8.346;2024-02-26T01:28:39;98560.78;;;9.60;76.08
26112;BME280;13829;48.990;8.346;2024-02-26T01:31:06;98565.28;;;9.55;78.40
26112;BME280;13829;48.990;8.346;2024-02-26T01:33:34;98562.13;;;9.80;79.32
26112;BME280;13829;48.990;8.346;2024-02-26T01:36:01;98558.44;;;9.89;79.57
26112;BME280;13829;48.990;8.346;2024-02-26T01:38:28;98560.88;;;9.96;79.12
26112;BME280;13829;48.990;8.346;2024-02-26T01:40:55;98563.94;;;10.17;74.64
26112;BME280;13829;48.990;8.346;2024-02-26T01:43:22;98570.69;;;10.27;69.61
26112;BME280;13829;48.990;8.346;2024-02-26T01:45:50;98586.59;;;10.21;72.79
26112;BME280;13829;48.990;8.346;2024-02-26T01:48:17;98589.28;;;10.18;74.33
26112;BME280;13829;48.990;8.346;2024-02-26T01:50:44;98598.53;;;10.38;70.68
26112;BME280;13829;48.990;8.346;2024-02-26T01:53:12;98595.78;;;10.42;69.51
26112;BME280;13829;48.990;8.346;2024-02-26T01:55:40;98593.13;;;10.44;67.58
26112;BME280;13829;48.990;8.346;2024-02-26T01:58:07;98599.56;;;10.29;69.87
26112;BME280;13829;48.990;8.346;2024-02-26T02:00:35;98601.03;;;10.02;73.18
26112;BME280;13829;48.990;8.346;2024-02-26T02:03:04;98603.66;;;10.02;77.35
26112;BME280;13829;48.990;8.346;2024-02-26T02:05:32;98606.34;;;9.99;78.64
26112;BME280;13829;48.990;8.346;2024-02-26T02:08:00;98604.38;;;10.10;77.39
26112;BME280;13829;48.990;8.346;2024-02-26T02:10:29;98603.66;;;10.02;79.58
26112;BME280;13829;48.990;8.346;2024-02-26T02:12:56;98605.69;;;9.89;81.57
26112;BME280;13829;48.990;8.346;2024-02-26T02:15:23;98606.69;;;9.83;85.37
26112;BME280;13829;48.990;8.346;2024-02-26T02:17:50;98602.84;;;10.00;85.66
26112;BME280;13829;48.990;8.346;2024-02-26T02:20:19;98606.94;;;9.71;88.00
26112;BME280;13829;48.990;8.346;2024-02-26T02:22:48;98602.75;;;9.62;90.68
26112;BME280;13829;48.990;8.346;2024-02-26T02:25:15;98598.66;;;9.47;95.67
26112;BME280;13829;48.990;8.346;2024-02-26T02:27:42;98598.78;;;9.41;97.54
26112;BME280;13829;48.990;8.346;2024-02-26T02:30:11;98595.56;;;9.26;100.00
26112;BME280;13829;48.990;8.346;2024-02-26T02:32:40;98589.69;;;9.12;100.00
26112;BME280;13829;48.990;8.346;2024-02-26T02:35:08;98595.06;;;9.06;100.00
26112;BME280;13829;48.990;8.346;2024-02-26T02:37:35;98588.19;;;8.98;100.00
26112;BME280;13829;48.990;8.346;2024-02-26T02:40:06;98580.34;;;8.98;100.00
26112;BME280;13829;48.990;8.346;2024-02-26T02:42:33;98590.81;;;8.98;100.00
26112;BME280;13829;48.990;8.346;2024-02-26T02:45:00;98593.41;;;9.00;100.00
26112;BME280;13829;48.990;8.346;2024-02-26T02:47:26;98588.88;;;9.10;100.00
26112;BME280;13829;48.990;8.346;2024-02-26T02:49:53;98590.19;;;8.84;100.00
26112;BME280;13829;48.990;8.346;2024-02-26T02:52:20;98581.84;;;8.62;100.00
26112;BME280;13829;48.990;8.346;2024-02-26T02:54:47;98582.78;;;8.58;100.00
26112;BME280;13829;48.990;8.346;2024-02-26T02:57:16;98584.44;;;8.62;100.00
26112;BME280;13829;48.990;8.346;2024-02-26T02:59:43;98579.41;;;8.49;100.00
26112;BME280;13829;48.990;8.346;2024-02-26T03:02:10;98576.69;;;8.56;100.00
26112;BME280;13829;48.990;8.346;2024-02-26T03:04:37;98579.75;;;8.26;100.00
26112;BME280;13829;48.990;8.346;2024-02-26T03:07:04;98579.78;;;8.23;100.00
26112;BME280;13829;48.990;8.346;2024-02-26T03:09:31;98566.53;;;8.34;100.00
26112;BME280;13829;48.990;8.346;2024-02-26T03:11:58;98569.16;;;8.32;100.00
26112;BME280;13829;48.990;8.346;2024-02-26T03:14:26;98557.06;;;8.25;100.00
26112;BME280;13829;48.990;8.346;2024-02-26T03:16:54;98558.78;;;8.26;100.00
26112;BME280;13829;48.990;8.346;2024-02-26T03:19:21;98549.97;;;8.33;100.00
26112;BME280;13829;48.990;8.346;2024-02-26T03:21:48;98553.16;;;8.54;100.00
26112;BME280;13829;48.990;8.346;2024-02-26T03:24:15;98548.06;;;8.42;100.00
26112;BME280;13829;48.990;8.346;2024-02-26T03:26:42;98542.19;;;8.26;100.00
26112;BME280;13829;48.990;8.346;2024-02-26T03:29:09;98542.31;;;8.20;100.00
26112;BME280;13829;48.990;8.346;2024-02-26T03:31:37;98538.53;;;8.38;100.00
26112;BME280;13829;48.990;8.346;2024-02-26T03:34:04;98534.56;;;8.68;100.00
26112;BME280;13829;48.990;8.346;2024-02-26T03:36:31;98535.53;;;8.62;100.00
26112;BME280;13829;48.990;8.346;2024-02-26T03:38:58;98523.16;;;8.71;100.00
26112;BME280;13829;48.990;8.346;2024-02-26T03:41:25;98517.97;;;8.69;100.00
26112;BME280;13829;48.990;8.346;2024-02-26T03:43:52;98516.84;;;8.81;100.00
26112;BME280;13829;48.990;8.346;2024-02-26T03:46:18;98514.03;;;8.93;100.00
26112;BME280;13829;48.990;8.346;2024-02-26T03:48:47;98518.31;;;8.97;100.00
26112;BME280;13829;48.990;8.346;2024-02-26T03:51:14;98508.53;;;9.06;100.00
26112;BME280;13829;48.990;8.346;2024-02-26T03:53:41;98509.75;;;8.88;100.00
26112;BME280;13829;48.990;8.346;2024-02-26T03:56:08;98510.09;;;8.69;100.00
26112;BME280;13829;48.990;8.346;2024-02-26T03:58:37;98506.13;;;8.45;100.00
26112;BME280;13829;48.990;8.346;2024-02-26T04:01:07;98495.75;;;8.39;100.00
26112;BME280;13829;48.990;8.346;2024-02-26T04:03:34;98501.06;;;8.34;100.00
26112;BME280;13829;48.990;8.346;2024-02-26T04:06:02;98490.59;;;8.32;100.00
26112;BME280;13829;48.990;8.346;2024-02-26T04:08:29;98495.19;;;8.18;100.00
26112;BME280;13829;48.990;8.346;2024-02-26T04:10:56;98490.75;;;8.23;100.00
26112;BME280;13829;48.990;8.346;2024-02-26T04:13:23;98494.75;;;8.46;100.00
26112;BME280;13829;48.990;8.346;2024-02-26T04:15:50;98497.56;;;8.33;100.00
26112;BME280;13829;48.990;8.346;2024-02-26T04:18:17;98501.56;;;8.58;100.00
26112;BME280;13829;48.990;8.346;2024-02-26T04:20:44;98495.44;;;8.59;100.00
26112;BME280;13829;48.990;8.346;2024-02-26T04:23:12;98507.50;;;8.66;100.00
26112;BME280;13829;48.990;8.346;2024-02-26T04:25:39;98509.91;;;8.78;100.00
26112;BME280;13829;48.990;8.346;2024-02-26T04:28:06;98508.31;;;8.70;100.00
26112;BME280;13829;48.990;8.346;2024-02-26T04:30:33;98508.16;;;8.80;100.00
26112;BME280;13829;48.990;8.346;2024-02-26T04:33:00;98516.91;;;8.79;100.00
26112;BME280;13829;48.990;8.346;2024-02-26T04:35:27;98521.16;;;8.85;100.00
26112;BME280;13829;48.990;8.346;2024-02-26T04:37:54;98519.31;;;8.90;100.00
26112;BME280;13829;48.990;8.346;2024-02-26T04:40:22;98519.44;;;8.82;100.00
26112;BME280;13829;48.990;8.346;2024-02-26T04:42:49;98523.06;;;8.77;100.00
26112;BME280;13829;48.990;8.346;2024-02-26T04:45:16;98524.84;;;8.75;100.00
26112;BME280;13829;48.990;8.346;2024-02-26T04:47:43;98525.97;;;8.60;100.00
26112;BME280;13829;48.990;8.346;2024-02-26T04:50:10;98521.34;;;8.74;100.00
26112;BME280;13829;48.990;8.346;2024-02-26T04:52:37;98529.78;;;8.90;100.00
26112;BME280;13829;48.990;8.346;2024-02-26T04:55:04;98530.13;;;8.72;100.00
26112;BME280;13829;48.990;8.346;2024-02-26T04:57:33;98538.91;;;8.68;100.00
26112;BME280;13829;48.990;8.346;2024-02-26T05:00:00;98538.06;;;8.67;100.00
26112;BME280;13829;48.990;8.346;2024-02-26T05:02:26;98541.56;;;8.66;100.00
26112;BME280;13829;48.990;8.346;2024-02-26T05:04:55;98547.63;;;8.70;100.00
26112;BME280;13829;48.990;8.346;2024-02-26T05:07:23;98546.50;;;8.85;100.00
26112;BME280;13829;48.990;8.346;2024-02-26T05:09:50;98549.19;;;8.80;100.00
26112;BME280;13829;48.990;8.346;2024-02-26T05:12:17;98552.69;;;8.79;100.00
26112;BME280;13829;48.990;8.346;2024-02-26T05:14:46;98555.56;;;8.65;100.00
26112;BME280;13829;48.990;8.346;2024-02-26T05:17:12;98557.41;;;8.60;100.00
26112;BME280;13829;48.990;8.346;2024-02-26T05:19:39;98565.22;;;8.63;100.00
26112;BME280;13829;48.990;8.346;2024-02-26T05:22:06;98563.44;;;8.65;100.00
26112;BME280;13829;48.990;8.346;2024-02-26T05:24:33;98565.22;;;8.63;100.00
26112;BME280;13829;48.990;8.346;2024-02-26T05:27:00;98565.94;;;8.73;100.00
26112;BME280;13829;48.990;8.346;2024-02-26T05:29:27;98570.06;;;8.86;100.00
26112;BME280;13829;48.990;8.346;2024-02-26T05:31:55;98567.66;;;8.74;100.00
26112;BME280;13829;48.990;8.346;2024-02-26T05:34:22;98569.50;;;8.67;100.00
26112;BME280;13829;48.990;8.346;2024-02-26T05:36:49;98571.91;;;8.81;100.00
26112;BME280;13829;48.990;8.346;2024-02-26T05:39:16;98571.13;;;8.76;100.00
26112;BME280;13829;48.990;8.346;2024-02-26T05:41:43;98575.56;;;8.71;100.00
26112;BME280;13829;48.990;8.346;2024-02-26T05:44:11;98572.06;;;8.72;100.00
26112;BME280;13829;48.990;8.346;2024-02-26T05:46:40;98568.69;;;8.63;100.00
26112;BME280;13829;48.990;8.346;2024-02-26T05:49:09;98569.66;;;8.59;100.00
26112;BME280;13829;48.990;8.346;2024-02-26T05:51:36;98574.91;;;8.56;100.00
26112;BME280;13829;48.990;8.346;2024-02-26T05:54:03;98574.22;;;8.46;100.00
26112;BME280;13829;48.990;8.346;2024-02-26T05:56:29;98573.34;;;8.44;100.00
26112;BME280;13829;48.990;8.346;2024-02-26T05:58:56;98576.84;;;8.45;100.00
26112;BME280;13829;48.990;8.346;2024-02-26T06:01:23;98574.22;;;8.45;100.00
26112;BME280;13829;48.990;8.346;2024-02-26T06:03:51;98570.78;;;8.40;100.00
26112;BME280;13829;48.990;8.346;2024-02-26T06:06:20;98576.09;;;8.37;100.00
26112;BME280;13829;48.990;8.346;2024-02-26T06:08:48;98593.56;;;8.35;100.00
26112;BME280;13829;48.990;8.346;2024-02-26T06:11:15;98591.88;;;8.33;100.00
26112;BME280;13829;48.990;8.346;2024-02-26T06:13:42;98586.56;;;8.37;100.00
26112;BME280;13829;48.990;8.346;2024-02-26T06:16:09;98599.63;;;8.38;100.00
26112;BME280;13829;48.990;8.346;2024-02-26T06:18:36;98595.47;;;8.23;100.00
26112;BME280;13829;48.990;8.346;2024-02-26T06:21:04;98613.06;;;8.15;100.00
26112;BME280;13829;48.990;8.346;2024-02-26T06:23:32;98616.53;;;8.17;100.00
26112;BME280;13829;48.990;8.346;2024-02-26T06:25:59;98620.00;;;8.18;100.00
26112;BME280;13829;48.990;8.346;2024-02-26T06:28:26;98614.63;;;8.28;100.00
26112;BME280;13829;48.990;8.346;2024-02-26T06:30:56;98616.25;;;8.36;100.00
26112;BME280;13829;48.990;8.346;2024-02-26T06:33:23;98617.13;;;8.36;100.00
26112;BME280;13829;48.990;8.346;2024-02-26T06:35:50;98623.94;;;8.49;100.00
26112;BME280;13829;48.990;8.346;2024-02-26T06:38:17;98616.88;;;8.55;100.00
26112;BME280;13829;48.990;8.346;2024-02-26T06:40:46;98623.97;;;8.48;100.00
26112;BME280;13829;48.990;8.346;2024-02-26T06:43:13;98631.06;;;8.38;100.00
26112;BME280;13829;48.990;8.346;2024-02-26T06:45:40;98622.03;;;8.61;100.00
26112;BME280;13829;48.990;8.346;2024-02-26T06:48:07;98623.00;;;8.55;100.00
26112;BME280;13829;48.990;8.346;2024-02-26T06:50:34;98624.31;;;8.81;100.00
26112;BME280;13829;48.990;8.346;2024-02-26T06:53:01;98628.22;;;8.55;100.00
26112;BME280;13829;48.990;8.346;2024-02-26T06:55:28;98630.41;;;8.81;100.00
26112;BME280;13829;48.990;8.346;2024-02-26T06:57:56;98628.66;;;8.84;100.00
26112;BME280;13829;48.990;8.346;2024-02-26T07:00:24;98634.00;;;8.76;100.00
26112;BME280;13829;48.990;8.346;2024-02-26T07:02:51;98628.53;;;8.90;100.00
26112;BME280;13829;48.990;8.346;2024-02-26T07:05:18;98632.81;;;8.95;100.00
26112;BME280;13829;48.990;8.346;2024-02-26T07:07:45;98641.53;;;8.97;100.00
26112;BME280;13829;48.990;8.346;2024-02-26T07:10:15;98643.66;;;8.74;100.00
26112;BME280;13829;48.990;8.346;2024-02-26T07:12:42;98641.09;;;8.71;100.00
26112;BME280;13829;48.990;8.346;2024-02-26T07:15:11;98648.88;;;8.74;100.00
26112;BME280;13829;48.990;8.346;2024-02-26T07:17:38;98646.88;;;8.91;100.00
26112;BME280;13829;48.990;8.346;2024-02-26T07:20:09;98646.72;;;9.01;100.00
26112;BME280;13829;48.990;8.346;2024-02-26T07:22:36;98646.97;;;8.85;100.00
26112;BME280;13829;48.990;8.346;2024-02-26T07:25:03;98645.22;;;8.84;100.00
26112;BME280;13829;48.990;8.346;2024-02-26T07:27:33;98651.81;;;9.10;100.00
26112;BME280;13829;48.990;8.346;2024-02-26T07:30:00;98648.81;;;9.32;100.00
26112;BME280;13829;48.990;8.346;2024-02-26T07:32:28;98654.75;;;9.40;100.00
26112;BME280;13829;48.990;8.346;2024-02-26T07:34:55;98648.22;;;9.14;100.00
26112;BME280;13829;48.990;8.346;2024-02-26T07:37:22;98648.44;;;9.02;100.00
26112;BME280;13829;48.990;8.346;2024-02-26T07:39:51;98646.78;;;8.97;100.00
26112;BME280;13829;48.990;8.346;2024-02-26T07:42:19;98644.19;;;8.96;100.00
26112;BME280;13829;48.990;8.346;2024-02-26T07:44:46;98648.66;;;8.89;100.00
26112;BME280;13829;48.990;8.346;2024-02-26T07:47:13;98649.34;;;9.01;100.00
26112;BME280;13829;48.990;8.346;2024-02-26T07:49:41;98651.16;;;8.97;100.00
26112;BME280;13829;48.990;8.346;2024-02-26T07:52:08;98653.72;;;9.00;100.00
26112;BME280;13829;48.990;8.346;2024-02-26T07:54:35;98656.03;;;9.19;100.00
26112;BME280;13829;48.990;8.346;2024-02-26T07:57:02;98657.84;;;9.15;100.00
26112;BME280;13829;48.990;8.346;2024-02-26T07:59:31;98656.75;;;9.27;100.00
26112;BME280;13829;48.990;8.346;2024-02-26T08:01:58;98653.38;;;9.20;100.00
26112;BME280;13829;48.990;8.346;2024-02-26T08:04:29;98653.19;;;9.31;100.00
26112;BME280;13829;48.990;8.346;2024-02-26T08:06:57;98661.31;;;9.17;100.00
26112;BME280;13829;48.990;8.346;2024-02-26T08:09:24;98660.38;;;9.18;100.00
26112;BME280;13829;48.990;8.346;2024-02-26T08:11:51;98662.97;;;9.21;100.00
26112;BME280;13829;48.990;8.346;2024-02-26T08:14:18;98654.09;;;9.30;100.00
26112;BME280;13829;48.990;8.346;2024-02-26T08:16:45;98656.78;;;9.25;100.00
26112;BME280;13829;48.990;8.346;2024-02-26T08:19:12;98651.28;;;9.39;100.00
26112;BME280;13829;48.990;8.346;2024-02-26T08:21:40;98659.06;;;9.44;100.00
26112;BME280;13829;48.990;8.346;2024-02-26T08:24:09;98660.41;;;9.67;100.00
26112;BME280;13829;48.990;8.346;2024-02-26T08:26:36;98662.78;;;9.77;100.00
26112;BME280;13829;48.990;8.346;2024-02-26T08:29:03;98659.69;;;10.02;100.00
26112;BME280;13829;48.990;8.346;2024-02-26T08:31:30;98661.13;;;10.16;100.00
26112;BME280;13829;48.990;8.346;2024-02-26T08:33:57;98675.16;;;10.57;100.00
26112;BME280;13829;48.990;8.346;2024-02-26T08:36:24;98676.38;;;10.42;100.00
26112;BME280;13829;48.990;8.346;2024-02-26T08:38:51;98672.28;;;10.68;100.00
26112;BME280;13829;48.990;8.346;2024-02-26T08:41:20;98670.66;;;10.62;100.00
26112;BME280;13829;48.990;8.346;2024-02-26T08:43:47;98683.72;;;10.67;100.00
26112;BME280;13829;48.990;8.346;2024-02-26T08:46:14;98682.34;;;10.50;100.00
26112;BME280;13829;48.990;8.346;2024-02-26T08:48:41;98682.63;;;10.35;100.00
26112;BME280;13829;48.990;8.346;2024-02-26T08:51:08;98689.97;;;10.61;100.00
26112;BME280;13829;48.990;8.346;2024-02-26T08:53:36;98681.91;;;10.69;100.00
26112;BME280;13829;48.990;8.346;2024-02-26T08:56:04;98686.72;;;10.50;100.00
26112;BME280;13829;48.990;8.346;2024-02-26T08:58:33;98687.16;;;10.69;100.00
26112;BME280;13829;48.990;8.346;2024-02-26T09:01:00;98702.56;;;10.86;100.00
26112;BME280;13829;48.990;8.346;2024-02-26T09:03:27;98696.97;;;11.00;100.00
26112;BME280;13829;48.990;8.346;2024-02-26T09:05:54;98704.09;;;10.95;100.00
26112;BME280;13829;48.990;8.346;2024-02-26T09:08:22;98695.78;;;11.12;100.00
26112;BME280;13829;48.990;8.346;2024-02-26T09:10:50;98700.84;;;11.19;100.00
26112;BME280;13829;48.990;8.346;2024-02-26T09:13:17;98688.72;;;11.14;100.00
26112;BME280;13829;48.990;8.346;2024-02-26T09:15:46;98695.84;;;11.10;100.00
26112;BME280;13829;48.990;8.346;2024-02-26T09:18:13;98694.72;;;10.83;100.00
26112;BME280;13829;48.990;8.346;2024-02-26T09:20:41;98687.66;;;10.85;100.00
26112;BME280;13829;48.990;8.346;2024-02-26T09:23:08;98694.09;;;10.73;100.00
26112;BME280;13829;48.990;8.346;2024-02-26T09:25:35;98693.69;;;10.90;100.00
26112;BME280;13829;48.990;8.346;2024-02-26T09:28:03;98695.09;;;11.05;100.00
26112;BME280;13829;48.990;8.346;2024-02-26T09:30:30;98690.31;;;11.19;98.83
26112;BME280;13829;48.990;8.346;2024-02-26T09:32:58;98691.22;;;11.18;98.40
26112;BME280;13829;48.990;8.346;2024-02-26T09:35:25;98695.88;;;11.08;99.35
26112;BME280;13829;48.990;8.346;2024-02-26T09:37:53;98690.84;;;11.34;94.47
26112;BME280;13829;48.990;8.346;2024-02-26T09:40:20;98693.19;;;11.10;97.95
26112;BME280;13829;48.990;8.346;2024-02-26T09:42:50;98698.69;;;11.01;99.33
26112;BME280;13829;48.990;8.346;2024-02-26T09:45:23;98697.75;;;11.38;98.52
26112;BME280;13829;48.990;8.346;2024-02-26T09:47:57;98698.09;;;11.58;98.40
26112;BME280;13829;48.990;8.346;2024-02-26T09:50:24;98697.72;;;11.72;98.03
26112;BME280;13829;48.990;8.346;2024-02-26T09:52:52;98701.03;;;11.79;94.26
26112;BME280;13829;48.990;8.346;2024-02-26T09:55:19;98701.31;;;12.03;90.88
26112;BME280;13829;48.990;8.346;2024-02-26T09:57:46;98715.47;;;11.99;91.26
26112;BME280;13829;48.990;8.346;2024-02-26T10:00:18;98719.34;;;12.17;89.52
26112;BME280;13829;48.990;8.346;2024-02-26T10:02:46;98726.03;;;12.30;89.45
26112;BME280;13829;48.990;8.346;2024-02-26T10:05:18;98734.16;;;12.22;87.79
26112;BME280;13829;48.990;8.346;2024-02-26T10:07:45;98725.13;;;12.00;88.82
26112;BME280;13829;48.990;8.346;2024-02-26T10:10:14;98726.97;;;12.28;89.51
26112;BME280;13829;48.990;8.346;2024-02-26T10:12:41;98722.50;;;12.60;89.21
26112;BME280;13829;48.990;8.346;2024-02-26T10:15:09;98720.69;;;12.90;87.01
26112;BME280;13829;48.990;8.346;2024-02-26T10:17:37;98733.59;;;12.71;86.13
26112;BME280;13829;48.990;8.346;2024-02-26T10:20:13;98729.59;;;12.57;87.13
26112;BME280;13829;48.990;8.346;2024-02-26T10:22:43;98726.50;;;12.43;86.99
26112;BME280;13829;48.990;8.346;2024-02-26T10:25:10;98737.53;;;12.26;87.28
26112;BME280;13829;48.990;8.346;2024-02-26T10:27:40;98741.22;;;12.20;88.88
26112;BME280;13829;48.990;8.346;2024-02-26T10:30:17;98739.16;;;12.32;90.00
26112;BME280;13829;48.990;8.346;2024-02-26T10:32:45;98740.25;;;12.54;89.74
26112;BME280;13829;48.990;8.346;2024-02-26T10:35:13;98744.44;;;12.62;90.41
26112;BME280;13829;48.990;8.346;2024-02-26T10:37:43;98753.94;;;12.36;89.34
26112;BME280;13829;48.990;8.346;2024-02-26T10:40:10;98751.88;;;12.47;89.24
26112;BME280;13829;48.990;8.346;2024-02-26T10:42:38;98752.78;;;12.46;87.94
26112;BME280;13829;48.990;8.346;2024-02-26T10:45:06;98753.50;;;12.51;86.93
26112;BME280;13829;48.990;8.346;2024-02-26T10:47:34;98758.88;;;12.48;86.65
26112;BME280;13829;48.990;8.346;2024-02-26T10:50:03;98762.75;;;12.35;86.08
26112;BME280;13829;48.990;8.346;2024-02-26T10:52:33;98763.59;;;12.37;86.45
26112;BME280;13829;48.990;8.346;2024-02-26T10:55:06;98767.13;;;12.36;89.29
26112;BME280;13829;48.990;8.346;2024-02-26T10:57:35;98766.44;;;12.61;87.88
26112;BME280;13829;48.990;8.346;2024-02-26T11:00:09;98769.03;;;12.62;85.11
26112;BME280;13829;48.990;8.346;2024-02-26T11:02:40;98766.78;;;12.78;84.28
26112;BME280;13829;48.990;8.346;2024-02-26T11:05:08;98769.13;;;12.87;84.09
26112;BME280;13829;48.990;8.346;2024-02-26T11:07:35;98761.31;;;12.84;83.27
26112;BME280;13829;48.990;8.346;2024-02-26T11:10:06;98764.47;;;12.96;82.36
26112;BME280;13829;48.990;8.346;2024-02-26T11:12:34;98771.13;;;12.79;82.79
26112;BME280;13829;48.990;8.346;2024-02-26T11:15:04;98767.78;;;12.74;83.20
26112;BME280;13829;48.990;8.346;2024-02-26T11:17:32;98764.97;;;12.80;83.97
26112;BME280;13829;48.990;8.346;2024-02-26T11:20:00;98763.88;;;12.87;82.79
26112;BME280;13829;48.990;8.346;2024-02-26T11:22:28;98775.19;;;12.91;82.59
26112;BME280;13829;48.990;8.346;2024-02-26T11:24:56;98771.59;;;12.94;81.21
26112;BME280;13829;48.990;8.346;2024-02-26T11:27:33;98777.06;;;12.57;82.54
26112;BME280;13829;48.990;8.346;2024-02-26T11:30:03;98775.75;;;12.43;84.92
26112;BME280;13829;48.990;8.346;2024-02-26T11:32:31;98770.97;;;12.55;84.62
26112;BME280;13829;48.990;8.346;2024-02-26T11:35:01;98766.56;;;12.86;82.19
26112;BME280;13829;48.990;8.346;2024-02-26T11:37:28;98755.75;;;12.94;81.21
26112;BME280;13829;48.990;8.346;2024-02-26T11:39:59;98763.00;;;13.15;80.01
26112;BME280;13829;48.990;8.346;2024-02-26T11:42:27;98759.28;;;13.21;79.32
26112;BME280;13829;48.990;8.346;2024-02-26T11:44:55;98763.50;;;13.27;78.48
26112;BME280;13829;48.990;8.346;2024-02-26T11:47:27;98758.94;;;13.32;78.81
26112;BME280;13829;48.990;8.346;2024-02-26T11:49:54;98751.38;;;13.49;77.48
26112;BME280;13829;48.990;8.346;2024-02-26T11:52:21;98752.56;;;13.66;75.29
26112;BME280;13829;48.990;8.346;2024-02-26T11:54:50;98761.47;;;13.63;73.18
26112;BME280;13829;48.990;8.346;2024-02-26T11:57:27;98768.13;;;13.48;75.04
26112;BME280;13829;48.990;8.346;2024-02-26T11:59:55;98771.00;;;13.67;73.49
26112;BME280;13829;48.990;8.346;2024-02-26T12:02:44;98768.50;;;13.90;73.37
26112;BME280;13829;48.990;8.346;2024-02-26T12:05:14;98775.97;;;14.02;74.08
26112;BME280;13829;48.990;8.346;2024-02-26T12:07:46;98772.53;;;14.00;75.42
26112;BME280;13829;48.990;8.346;2024-02-26T12:10:27;98773.66;;;13.93;72.50
26112;BME280;13829;48.990;8.346;2024-02-26T12:13:06;98781.25;;;14.02;74.28
26112;BME280;13829;48.990;8.346;2024-02-26T12:15:37;98775.97;;;14.02;75.19
26112;BME280;13829;48.990;8.346;2024-02-26T12:18:07;98778.09;;;13.92;70.58
26112;BME280;13829;48.990;8.346;2024-02-26T12:20:36;98776.50;;;13.86;69.56
26112;BME280;13829;48.990;8.346;2024-02-26T12:23:04;98774.91;;;13.82;69.24
26112;BME280;13829;48.990;8.346;2024-02-26T12:25:32;98782.72;;;13.85;69.67
26112;BME280;13829;48.990;8.346;2024-02-26T12:28:01;98771.94;;;13.92;70.51
26112;BME280;13829;48.990;8.346;2024-02-26T12:30:31;98776.31;;;13.93;69.62
26112;BME280;13829;48.990;8.346;2024-02-26T12:32:58;98780.06;;;14.11;67.54
26112;BME280;13829;48.990;8.346;2024-02-26T12:35:27;98780.06;;;14.11;66.37
26112;BME280;13829;48.990;8.346;2024-02-26T12:37:54;98773.94;;;14.10;67.10
26112;BME280;13829;48.990;8.346;2024-02-26T12:40:22;98781.88;;;14.10;66.89
26112;BME280;13829;48.990;8.346;2024-02-26T12:42:50;98788.81;;;14.38;66.53
26112;BME280;13829;48.990;8.346;2024-02-26T12:45:20;98785.91;;;14.21;68.36
26112;BME280;13829;48.990;8.346;2024-02-26T12:47:47;98785.09;;;13.93;70.95
26112;BME280;13829;48.990;8.346;2024-02-26T12:50:15;98786.38;;;13.81;70.64
26112;BME280;13829;48.990;8.346;2024-02-26T12:52:45;98789.34;;;13.72;70.61
26112;BME280;13829;48.990;8.346;2024-02-26T12:55:15;98791.94;;;13.74;71.27
26112;BME280;13829;48.990;8.346;2024-02-26T12:57:44;98795.84;;;13.89;71.76
26112;BME280;13829;48.990;8.346;2024-02-26T13:00:15;98796.69;;;13.89;71.25
26112;BME280;13829;48.990;8.346;2024-02-26T13:02:45;98799.34;;;14.14;70.30